Time;durP1;ratioP1;P1;durP2;ratioP2;P2;SDS_P1;SDS_P2;PMS_P1;PMS_P2;Temp;Humidity;BMP_temperature;BMP_pressure;BME280_temperature;BME280_humidity;BME280_pressure;Samples;Min_cycle;Max_cycle;Signal;HPM_P1;HPM_P2
2022/10/17 00:01:33;;;;;;;9.73;1.63;;;15.90;99.90;;;;;;5052034;28;20632;-60
2022/10/17 00:03:59;;;;;;;6.97;1.35;;;15.70;99.90;;;;;;5051023;28;20615;-60
2022/10/17 00:06:24;;;;;;;10.93;1.92;;;15.80;99.90;;;;;;5050897;28;20173;-61
2022/10/17 00:08:50;;;;;;;9.73;1.77;;;16.00;99.90;;;;;;5051021;28;20256;-61
2022/10/17 00:11:22;;;;;;;12.75;1.77;;;15.90;99.90;;;;;;5066097;28;20222;-61
2022/10/17 00:13:49;;;;;;;14.27;2.30;;;16.30;99.90;;;;;;5050816;28;20635;-61
2022/10/17 00:16:23;;;;;;;14.45;2.00;;;16.20;99.90;;;;;;5058982;28;20169;-61
2022/10/17 00:18:49;;;;;;;17.02;1.77;;;16.10;99.90;;;;;;5067202;28;20294;-62
2022/10/17 00:21:19;;;;;;;11.30;1.80;;;15.90;99.90;;;;;;5031080;28;20664;-61
2022/10/17 00:23:45;;;;;;;19.23;1.85;;;16.30;99.90;;;;;;5046424;28;20177;-62
2022/10/17 00:26:11;;;;;;;19.30;1.92;;;16.20;99.90;;;;;;5062684;28;20168;-62
2022/10/17 00:28:37;;;;;;;12.27;1.63;;;16.30;99.90;;;;;;5050966;28;20716;-61
2022/10/17 00:31:05;;;;;;;11.63;1.55;;;16.10;99.90;;;;;;5057841;28;20173;-62
2022/10/17 00:33:32;;;;;;;15.50;1.90;;;16.30;99.90;;;;;;5070297;28;20226;-62
2022/10/17 00:36:12;;;;;;;17.27;2.97;;;16.10;99.90;;;;;;5063585;28;20181;-62
2022/10/17 00:38:39;;;;;;;13.98;2.15;;;16.30;99.90;;;;;;5063358;28;20296;-61
2022/10/17 00:41:05;;;;;;;8.05;1.90;;;16.20;99.90;;;;;;5066066;28;20177;-62
2022/10/17 00:43:51;;;;;;;17.88;2.35;;;16.00;99.90;;;;;;5069997;28;20180;-61
2022/10/17 00:46:16;;;;;;;16.15;2.15;;;16.00;99.90;;;;;;5054301;28;20259;-62
2022/10/17 00:48:42;;;;;;;19.20;2.13;;;16.10;99.90;;;;;;5058682;28;20264;-62
2022/10/17 00:51:08;;;;;;;13.02;1.98;;;16.10;99.90;;;;;;5058419;28;20202;-61
2022/10/17 00:53:35;;;;;;;12.00;1.85;;;16.10;99.90;;;;;;5070248;28;20180;-62
2022/10/17 00:56:01;;;;;;;14.82;2.55;;;16.10;99.90;;;;;;5069045;28;20182;-61
2022/10/17 00:58:27;;;;;;;17.73;1.98;;;;;;;;;;5070420;28;20635;-61
2022/10/17 01:00:53;;;;;;;17.73;2.05;;;16.30;99.90;;;;;;5068316;28;20172;-61
2022/10/17 01:03:18;;;;;;;19.75;2.55;;;16.10;99.90;;;;;;5042562;28;20488;-60
2022/10/17 01:05:45;;;;;;;12.77;1.95;;;16.30;99.90;;;;;;5050321;28;20188;-60
2022/10/17 01:08:12;;;;;;;14.07;1.88;;;16.10;99.90;;;;;;5050342;28;20240;-60
2022/10/17 01:11:12;;;;;;;16.50;1.80;;;16.30;99.90;;;;;;5050139;28;20192;-60
2022/10/17 01:13:44;;;;;;;16.13;2.35;;;16.10;99.90;;;;;;5050375;28;20209;-60
2022/10/17 01:16:36;;;;;;;18.98;1.98;;;16.30;99.90;;;;;;5050503;28;20169;-60
2022/10/17 01:19:31;;;;;;;16.42;1.90;;;16.30;99.90;;;;;;5050136;28;20219;-60
2022/10/17 01:22:00;;;;;;;18.08;2.38;;;16.30;99.90;;;;;;5048725;28;20234;-60
2022/10/17 01:24:31;;;;;;;13.80;2.00;;;16.30;99.90;;;;;;5058740;28;20172;-60
2022/10/17 01:26:56;;;;;;;14.32;1.90;;;16.60;99.90;;;;;;5067288;28;20181;-60
2022/10/17 01:30:02;;;;;;;19.60;2.17;;;16.30;99.90;;;;;;5065809;28;20234;-60
2022/10/17 01:32:47;;;;;;;18.88;2.50;;;16.30;99.90;;;;;;5062870;28;20196;-61
2022/10/17 01:35:22;;;;;;;16.05;2.78;;;16.40;99.90;;;;;;5050055;28;20165;-60
2022/10/17 01:37:54;;;;;;;17.70;2.22;;;16.50;99.90;;;;;;5057740;28;20231;-60
2022/10/17 01:40:42;;;;;;;14.32;2.17;;;16.50;99.90;;;;;;5069637;28;20180;-60
2022/10/17 01:43:15;;;;;;;12.10;2.50;;;16.40;99.90;;;;;;5052307;28;20177;-61
2022/10/17 01:46:01;;;;;;;13.80;2.08;;;16.40;99.90;;;;;;5049976;28;20174;-60
2022/10/17 01:48:35;;;;;;;14.45;1.90;;;16.40;99.90;;;;;;5057509;28;20191;-61
2022/10/17 01:51:12;;;;;;;12.93;2.03;;;16.30;99.90;;;;;;5071482;28;20248;-60
2022/10/17 01:53:43;;;;;;;14.25;2.10;;;16.40;99.90;;;;;;5071526;28;20673;-60
2022/10/17 01:56:12;;;;;;;22.75;2.83;;;16.50;99.90;;;;;;5067639;28;20177;-60
2022/10/17 01:58:43;;;;;;;15.07;2.15;;;16.60;99.90;;;;;;5073166;28;20287;-60
2022/10/17 02:01:11;;;;;;;21.17;2.05;;;16.50;99.90;;;;;;5061120;28;20716;-60
2022/10/17 02:03:38;;;;;;;16.75;1.98;;;16.50;99.90;;;;;;5057310;28;20606;-60
2022/10/17 02:06:05;;;;;;;15.07;1.83;;;16.40;99.90;;;;;;5053369;28;20177;-60
2022/10/17 02:08:51;;;;;;;15.93;2.03;;;16.60;99.90;;;;;;5053006;28;20184;-60
2022/10/17 02:11:21;;;;;;;16.15;2.38;;;16.50;99.90;;;;;;5066541;28;20223;-59
2022/10/17 02:14:03;;;;;;;24.25;2.50;;;16.60;99.90;;;;;;5056390;28;20247;-60
2022/10/17 02:16:47;;;;;;;13.93;2.30;;;16.50;99.90;;;;;;5072658;28;20168;-61
2022/10/17 02:19:29;;;;;;;19.35;2.83;;;16.40;99.90;;;;;;5069258;28;20226;-61
2022/10/17 02:22:23;;;;;;;20.67;2.25;;;16.40;99.90;;;;;;5052912;28;20180;-61
2022/10/17 02:24:48;;;;;;;19.38;2.67;;;16.40;99.90;;;;;;5058704;28;20176;-61
2022/10/17 02:27:25;;;;;;;16.88;2.45;;;16.40;99.90;;;;;;5063529;28;20169;-61
2022/10/17 02:30:12;;;;;;;15.48;1.90;;;16.30;99.90;;;;;;5051113;28;20193;-61
2022/10/17 02:32:53;;;;;;;21.20;2.45;;;16.20;99.90;;;;;;5056981;28;20534;-61
2022/10/17 02:35:21;;;;;;;19.45;2.70;;;16.40;99.90;;;;;;5066335;28;20217;-61
2022/10/17 02:37:47;;;;;;;27.33;3.10;;;16.10;99.90;;;;;;5053524;28;20221;-61
2022/10/17 02:40:15;;;;;;;24.13;3.15;;;16.30;99.90;;;;;;5060158;28;20184;-60
2022/10/17 02:42:45;;;;;;;16.20;1.90;;;16.30;99.90;;;;;;5072515;28;20260;-61
2022/10/17 02:45:11;;;;;;;23.38;3.30;;;16.30;99.90;;;;;;5053494;28;20660;-61
2022/10/17 02:48:05;;;;;;;20.00;2.53;;;16.30;99.90;;;;;;5052561;28;20173;-61
2022/10/17 02:50:57;;;;;;;15.52;2.58;;;16.00;99.90;;;;;;5025302;28;20255;-61
2022/10/17 02:53:48;;;;;;;17.73;2.25;;;16.40;99.90;;;;;;5048754;28;20184;-61
2022/10/17 02:56:17;;;;;;;13.40;2.35;;;16.20;99.90;;;;;;5067755;28;20180;-61
2022/10/17 02:58:49;;;;;;;14.70;2.63;;;16.20;99.90;;;;;;5062427;28;20253;-60
2022/10/17 03:01:16;;;;;;;16.58;2.35;;;16.10;99.90;;;;;;5053206;28;20570;-60
2022/10/17 03:03:42;;;;;;;12.00;1.80;;;;;;;;;;5053356;28;20220;-61
2022/10/17 03:06:08;;;;;;;18.15;2.47;;;15.70;99.90;;;;;;5066971;28;20227;-61
2022/10/17 03:08:33;;;;;;;19.70;2.35;;;15.60;99.90;;;;;;5065318;28;20177;-61
2022/10/17 03:10:59;;;;;;;15.20;1.65;;;15.60;99.90;;;;;;5051712;28;20188;-60
2022/10/17 03:13:24;;;;;;;15.20;2.28;;;15.60;99.90;;;;;;5052334;28;20260;-60
2022/10/17 03:15:50;;;;;;;13.02;2.40;;;15.30;99.90;;;;;;5051944;28;20181;-60
2022/10/17 03:18:16;;;;;;;16.38;2.05;;;15.50;99.90;;;;;;5051714;28;20224;-60
2022/10/17 03:20:41;;;;;;;15.43;2.25;;;15.70;99.90;;;;;;5052493;28;20181;-60
2022/10/17 03:23:07;;;;;;;16.45;2.35;;;15.10;99.90;;;;;;5068559;28;20591;-61
2022/10/17 03:25:33;;;;;;;13.27;1.88;;;15.40;99.90;;;;;;5057731;28;20176;-61
2022/10/17 03:28:00;;;;;;;15.65;2.50;;;15.70;99.90;;;;;;5051428;28;20181;-59
2022/10/17 03:30:26;;;;;;;17.38;2.40;;;15.30;99.90;;;;;;5051723;28;20289;-59
2022/10/17 03:32:52;;;;;;;16.60;2.13;;;15.50;99.90;;;;;;5051479;28;20192;-61
2022/10/17 03:35:17;;;;;;;18.45;2.42;;;15.50;99.90;;;;;;5051419;28;20169;-61
2022/10/17 03:37:43;;;;;;;17.35;2.08;;;15.50;99.90;;;;;;5054669;28;20286;-59
2022/10/17 03:40:09;;;;;;;12.68;1.85;;;15.40;99.90;;;;;;5060044;28;20216;-60
2022/10/17 03:42:35;;;;;;;17.60;2.40;;;15.50;99.90;;;;;;5051714;28;20178;-59
2022/10/17 03:45:00;;;;;;;14.02;1.77;;;15.70;99.90;;;;;;5066577;28;20227;-60
2022/10/17 03:47:27;;;;;;;23.95;2.13;;;15.50;99.90;;;;;;5051501;28;20169;-60
2022/10/17 03:49:53;;;;;;;14.25;2.17;;;;;;;;;;5051335;28;20254;-60
2022/10/17 03:52:19;;;;;;;17.40;2.63;;;15.40;99.90;;;;;;5051392;28;20329;-59
2022/10/17 03:54:44;;;;;;;13.48;1.90;;;15.30;99.90;;;;;;5055992;28;20265;-61
2022/10/17 03:57:10;;;;;;;17.48;2.13;;;15.40;99.90;;;;;;5071351;28;20176;-61
2022/10/17 03:59:36;;;;;;;16.38;2.28;;;15.40;99.90;;;;;;5070571;28;20204;-60
2022/10/17 04:02:01;;;;;;;21.85;2.58;;;15.50;99.90;;;;;;5066344;28;20180;-60
2022/10/17 04:04:27;;;;;;;13.90;2.42;;;15.30;99.90;;;;;;5051148;28;20186;-59
2022/10/17 04:06:52;;;;;;;14.93;1.77;;;15.30;99.90;;;;;;5051157;28;20524;-59
2022/10/17 04:09:18;;;;;;;22.63;2.67;;;15.20;99.90;;;;;;5050930;28;20185;-59
2022/10/17 04:11:44;;;;;;;22.23;2.72;;;14.90;99.90;;;;;;5064655;28;20180;-61
2022/10/17 04:14:09;;;;;;;13.55;2.00;;;15.20;99.90;;;;;;5050326;28;20182;-62
2022/10/17 04:16:35;;;;;;;17.33;2.72;;;15.20;99.90;;;;;;5051246;28;20169;-62
2022/10/17 04:19:01;;;;;;;16.83;2.40;;;15.00;99.90;;;;;;5050697;28;20205;-62
2022/10/17 04:21:28;;;;;;;15.95;2.20;;;15.20;99.90;;;;;;5050896;28;20275;-60
2022/10/17 04:23:58;;;;;;;13.80;2.08;;;15.50;99.90;;;;;;5050788;28;20192;-60
2022/10/17 04:26:24;;;;;;;18.50;2.30;;;15.10;99.90;;;;;;5050766;28;20173;-60
2022/10/17 04:28:50;;;;;;;17.52;3.05;;;14.80;99.90;;;;;;5050829;28;20195;-60
2022/10/17 04:31:17;;;;;;;13.73;2.17;;;15.00;99.90;;;;;;5050974;28;20200;-61
2022/10/17 04:33:45;;;;;;;16.17;2.28;;;14.80;99.90;;;;;;5052852;28;20268;-62
2022/10/17 04:36:13;;;;;;;17.05;2.38;;;14.80;99.90;;;;;;5060948;28;20181;-61
2022/10/17 04:38:39;;;;;;;17.17;2.10;;;14.80;99.90;;;;;;5055837;28;20224;-64
2022/10/17 04:41:07;;;;;;;20.35;2.45;;;14.70;99.90;;;;;;5062544;28;20177;-62
2022/10/17 04:43:35;;;;;;;12.40;2.15;;;14.80;99.90;;;;;;5050759;28;20173;-62
2022/10/17 04:46:02;;;;;;;20.60;2.05;;;14.60;99.90;;;;;;5050504;28;20264;-62
2022/10/17 04:48:28;;;;;;;13.13;2.13;;;14.50;99.90;;;;;;5050437;28;20196;-62
2022/10/17 04:50:55;;;;;;;13.95;2.03;;;14.60;99.90;;;;;;5057788;28;20635;-61
2022/10/17 04:53:21;;;;;;;15.65;2.45;;;14.60;99.90;;;;;;5066192;28;20184;-62
2022/10/17 04:55:46;;;;;;;14.13;2.40;;;14.70;99.90;;;;;;5050516;28;20569;-59
2022/10/17 04:58:12;;;;;;;11.85;1.85;;;14.70;99.90;;;;;;5050443;28;20288;-59
2022/10/17 05:00:38;;;;;;;22.17;2.65;;;14.50;99.90;;;;;;5050650;28;20177;-60
2022/10/17 05:03:03;;;;;;;17.50;2.17;;;14.50;99.90;;;;;;5061085;28;20189;-60
2022/10/17 05:05:29;;;;;;;14.40;2.08;;;14.50;99.90;;;;;;5068032;28;20277;-61
2022/10/17 05:07:55;;;;;;;25.85;2.95;;;14.60;99.90;;;;;;5066641;28;20230;-60
2022/10/17 05:10:20;;;;;;;12.10;1.73;;;14.50;99.90;;;;;;5053700;28;20168;-61
2022/10/17 05:12:49;;;;;;;16.13;2.22;;;14.50;99.90;;;;;;5070225;28;20193;-60
2022/10/17 05:15:15;;;;;;;15.50;1.88;;;14.30;99.90;;;;;;5066961;28;20659;-64
2022/10/17 05:17:41;;;;;;;14.90;2.17;;;14.40;99.90;;;;;;5068393;28;20169;-60
2022/10/17 05:20:07;;;;;;;15.30;2.50;;;14.40;99.90;;;;;;5069744;28;20716;-60
2022/10/17 05:22:33;;;;;;;15.10;2.47;;;14.30;99.90;;;;;;5068560;28;20714;-60
2022/10/17 05:24:59;;;;;;;16.77;2.50;;;14.60;99.90;;;;;;5070047;28;20264;-60
2022/10/17 05:27:24;;;;;;;20.33;2.10;;;14.20;99.90;;;;;;5073479;28;20534;-60
2022/10/17 05:29:50;;;;;;;19.40;2.30;;;14.40;99.90;;;;;;5074112;28;20545;-60
2022/10/17 05:32:16;;;;;;;15.43;2.13;;;;;;;;;;5056955;28;20181;-60
2022/10/17 05:34:42;;;;;;;20.33;2.40;;;14.20;99.90;;;;;;5053702;28;20182;-60
2022/10/17 05:37:08;;;;;;;15.67;2.47;;;;;;;;;;5069243;28;20701;-60
2022/10/17 05:39:33;;;;;;;10.48;1.73;;;14.30;99.90;;;;;;5057225;28;20224;-60
2022/10/17 05:41:59;;;;;;;27.25;2.60;;;14.10;99.90;;;;;;5068858;28;20237;-60
2022/10/17 05:44:25;;;;;;;21.48;2.38;;;14.10;99.90;;;;;;5055786;28;20177;-60
2022/10/17 05:46:50;;;;;;;16.27;2.08;;;14.10;99.90;;;;;;5053887;28;20580;-60
2022/10/17 05:49:16;;;;;;;21.42;2.92;;;;;;;;;;5065137;28;20272;-60
2022/10/17 05:51:42;;;;;;;14.98;2.03;;;14.30;99.90;;;;;;5053949;28;20169;-59
2022/10/17 05:54:08;;;;;;;23.58;2.38;;;14.30;99.90;;;;;;5053489;28;20193;-60
2022/10/17 05:56:34;;;;;;;15.20;2.10;;;14.40;99.90;;;;;;5062404;28;20193;-59
2022/10/17 05:59:00;;;;;;;15.20;2.67;;;14.10;99.90;;;;;;5053306;28;20204;-60
2022/10/17 06:01:26;;;;;;;17.42;2.22;;;14.40;99.90;;;;;;5060433;28;20204;-60
2022/10/17 06:03:52;;;;;;;20.10;2.13;;;12.00;99.90;;;;;;5067266;28;20219;-60
2022/10/17 06:06:18;;;;;;;19.02;2.80;;;14.30;99.90;;;;;;5066751;28;20281;-60
2022/10/17 06:08:44;;;;;;;15.40;2.47;;;14.30;99.90;;;;;;5053175;28;20173;-60
2022/10/17 06:11:11;;;;;;;17.70;2.33;;;14.20;99.90;;;;;;5064063;28;20182;-59
2022/10/17 06:13:37;;;;;;;16.53;2.20;;;14.20;99.90;;;;;;5062386;28;20643;-59
2022/10/17 06:16:03;;;;;;;19.40;2.25;;;14.00;99.90;;;;;;5053884;28;20173;-59
2022/10/17 06:18:29;;;;;;;19.02;2.60;;;14.10;99.90;;;;;;5053959;28;20535;-59
2022/10/17 06:21:04;;;;;;;17.97;2.43;;;14.10;99.90;;;;;;5053202;28;20632;-59
2022/10/17 06:23:30;;;;;;;23.93;2.67;;;14.10;99.90;;;;;;5053043;28;20635;-59
2022/10/17 06:26:04;;;;;;;23.10;2.47;;;14.10;99.90;;;;;;5054102;28;20220;-59
2022/10/17 06:28:29;;;;;;;20.45;2.58;;;14.40;99.90;;;;;;5062573;28;20181;-58
2022/10/17 06:30:55;;;;;;;15.17;2.43;;;14.10;99.90;;;;;;5066293;28;20253;-58
2022/10/17 06:33:22;;;;;;;22.05;2.83;;;13.90;99.90;;;;;;5059131;28;20259;-58
2022/10/17 06:35:52;;;;;;;18.38;2.38;;;12.00;99.90;;;;;;5054962;28;20169;-59
2022/10/17 06:38:18;;;;;;;24.97;3.07;;;14.10;99.90;;;;;;5059611;28;20259;-63
2022/10/17 06:40:44;;;;;;;20.05;2.30;;;14.10;99.90;;;;;;5052513;28;20197;-63
2022/10/17 06:43:09;;;;;;;21.67;3.05;;;14.10;99.90;;;;;;5062323;28;20643;-62
2022/10/17 06:45:38;;;;;;;20.33;3.13;;;13.90;99.90;;;;;;5071790;28;20200;-61
2022/10/17 06:48:04;;;;;;;30.57;3.30;;;14.10;99.90;;;;;;5067861;28;20177;-61
2022/10/17 06:50:29;;;;;;;20.20;2.90;;;14.10;99.90;;;;;;5072503;28;20721;-63
2022/10/17 06:52:55;;;;;;;22.33;2.53;;;14.20;99.90;;;;;;5070052;28;20173;-63
2022/10/17 06:55:20;;;;;;;25.10;2.50;;;14.10;99.90;;;;;;5052668;28;20252;-61
2022/10/17 06:57:46;;;;;;;17.53;2.27;;;14.40;99.90;;;;;;5055936;28;20184;-62
2022/10/17 07:00:12;;;;;;;32.13;3.20;;;14.40;99.90;;;;;;5071886;28;20215;-60
2022/10/17 07:02:38;;;;;;;19.55;2.75;;;14.00;99.90;;;;;;5070568;28;20176;-61
2022/10/17 07:05:04;;;;;;;19.33;2.17;;;14.00;99.90;;;;;;5068300;28;20181;-61
2022/10/17 07:07:31;;;;;;;23.50;2.47;;;14.10;99.90;;;;;;5071708;28;20176;-61
2022/10/17 07:09:57;;;;;;;22.90;3.13;;;14.00;99.90;;;;;;5065388;28;20168;-61
2022/10/17 07:12:23;;;;;;;20.33;3.17;;;14.20;99.90;;;;;;5071368;28;20705;-60
2022/10/17 07:14:49;;;;;;;24.03;2.90;;;13.90;99.90;;;;;;5071828;28;20173;-61
2022/10/17 07:17:18;;;;;;;19.43;2.20;;;13.60;99.90;;;;;;5071818;28;20168;-61
2022/10/17 07:19:44;;;;;;;21.27;2.37;;;14.30;99.90;;;;;;5065789;28;20220;-61
2022/10/17 07:22:10;;;;;;;22.13;2.70;;;14.30;99.90;;;;;;5065997;28;20226;-61
2022/10/17 07:24:36;;;;;;;29.30;3.70;;;14.20;99.90;;;;;;5061792;28;20271;-61
2022/10/17 07:27:02;;;;;;;16.17;2.73;;;14.00;99.90;;;;;;5051769;28;20205;-67
2022/10/17 07:29:28;;;;;;;22.55;2.58;;;14.10;99.90;;;;;;5063810;28;20204;-66
2022/10/17 07:31:54;;;;;;;28.77;2.42;;;14.40;99.90;;;;;;5057700;28;20176;-66
2022/10/17 07:34:19;;;;;;;19.27;2.78;;;14.20;99.90;;;;;;5058098;28;20237;-61
2022/10/17 07:36:45;;;;;;;19.50;2.80;;;14.40;99.90;;;;;;5051875;28;20200;-60
2022/10/17 07:39:11;;;;;;;23.88;2.63;;;14.50;99.90;;;;;;5051240;28;20270;-60
2022/10/17 07:41:37;;;;;;;23.95;2.45;;;14.30;99.90;;;;;;5051564;28;20581;-60
2022/10/17 07:44:02;;;;;;;21.07;2.77;;;14.40;99.90;;;;;;5051712;28;20287;-60
2022/10/17 07:46:28;;;;;;;22.00;2.97;;;14.60;99.90;;;;;;5051418;28;20200;-60
2022/10/17 07:48:54;;;;;;;29.77;3.25;;;;;;;;;;5050676;28;20173;-60
2022/10/17 07:51:20;;;;;;;23.73;2.72;;;14.60;99.90;;;;;;5051317;28;20169;-60
2022/10/17 07:53:47;;;;;;;17.23;2.30;;;14.90;99.90;;;;;;5051414;28;20177;-60
2022/10/17 07:56:12;;;;;;;18.70;2.80;;;14.70;99.90;;;;;;5050625;28;20227;-62
2022/10/17 07:58:39;;;;;;;31.05;3.78;;;18.40;99.90;;;;;;5069399;28;20216;-66
2022/10/17 08:01:07;;;;;;;10.65;1.95;;;14.70;99.90;;;;;;5051838;28;20614;-60
2022/10/17 08:03:33;;;;;;;23.20;3.00;;;14.60;99.90;;;;;;5051238;28;20169;-64
2022/10/17 08:06:00;;;;;;;23.00;2.70;;;14.70;99.90;;;;;;5051193;28;20239;-63
2022/10/17 08:08:26;;;;;;;20.75;2.38;;;14.60;99.90;;;;;;5051066;28;20244;-63
2022/10/17 08:10:53;;;;;;;23.13;2.97;;;14.50;99.90;;;;;;5050905;28;20628;-63
2022/10/17 08:13:20;;;;;;;20.17;2.63;;;14.70;99.90;;;;;;5050893;28;20663;-63
2022/10/17 08:15:46;;;;;;;19.95;2.72;;;14.80;99.90;;;;;;5051139;28;20177;-63
2022/10/17 08:18:13;;;;;;;36.15;3.38;;;14.80;99.90;;;;;;5051152;28;20205;-61
2022/10/17 08:20:40;;;;;;;14.75;2.22;;;14.70;99.90;;;;;;5050952;28;20254;-61
2022/10/17 08:23:06;;;;;;;30.83;2.80;;;14.90;99.90;;;;;;5051478;28;20169;-61
2022/10/17 08:25:32;;;;;;;28.33;3.05;;;15.00;99.90;;;;;;5050952;28;20512;-66
2022/10/17 08:27:57;;;;;;;15.52;2.40;;;14.90;99.90;;;;;;5060650;28;20187;-61
2022/10/17 08:30:23;;;;;;;16.38;2.55;;;;;;;;;;5050767;28;20173;-60
2022/10/17 08:32:49;;;;;;;18.42;2.47;;;15.30;99.90;;;;;;5061169;28;20179;-57
2022/10/17 08:35:15;;;;;;;18.42;2.15;;;15.30;99.90;;;;;;5067878;28;20184;-58
2022/10/17 08:37:41;;;;;;;19.05;2.42;;;15.30;99.90;;;;;;5067923;28;20267;-58
2022/10/17 08:40:13;;;;;;;18.73;2.60;;;15.30;99.90;;;;;;5053328;28;20701;-58
2022/10/17 08:43:02;;;;;;;17.10;2.83;;;15.40;99.90;;;;;;5050765;28;20256;-58
2022/10/17 08:45:30;;;;;;;17.50;2.17;;;15.50;99.90;;;;;;5054086;28;20269;-58
2022/10/17 08:48:11;;;;;;;21.95;2.60;;;15.50;99.90;;;;;;5052005;28;20177;-58
2022/10/17 08:50:43;;;;;;;12.45;1.85;;;15.50;99.90;;;;;;5051059;28;20256;-58
2022/10/17 08:53:24;;;;;;;24.70;3.08;;;15.60;99.90;;;;;;5050327;28;20200;-58
2022/10/17 08:55:52;;;;;;;20.63;2.58;;;15.60;99.90;;;;;;5050400;28;20319;-58
2022/10/17 08:58:31;;;;;;;19.60;1.95;;;15.80;99.90;;;;;;5050458;28;20684;-58
2022/10/17 09:00:56;;;;;;;19.90;2.67;;;15.80;99.90;;;;;;5054711;28;20177;-58
2022/10/17 09:03:40;;;;;;;24.23;3.05;;;16.00;99.90;;;;;;5063700;28;20185;-58
2022/10/17 09:06:33;;;;;;;23.70;2.85;;;16.00;99.90;;;;;;5054110;28;20171;-59
2022/10/17 09:09:21;;;;;;;15.93;2.35;;;15.80;99.90;;;;;;5054308;28;20170;-58
2022/10/17 09:12:16;;;;;;;20.42;2.83;;;15.90;99.90;;;;;;5054266;28;20326;-58
2022/10/17 09:14:42;;;;;;;20.08;2.90;;;;;;;;;;5054243;28;20173;-58
2022/10/17 09:17:33;;;;;;;19.52;2.83;;;16.00;99.90;;;;;;5054403;28;20188;-58
2022/10/17 09:20:11;;;;;;;23.13;2.65;;;16.10;99.90;;;;;;5054272;28;20742;-58
2022/10/17 09:22:43;;;;;;;13.60;2.30;;;16.40;99.90;;;;;;5054761;28;20718;-59
2022/10/17 09:25:14;;;;;;;26.40;3.25;;;16.40;99.90;;;;;;5053689;28;20173;-59
2022/10/17 09:27:45;;;;;;;28.90;2.85;;;16.40;99.90;;;;;;5070580;28;20223;-59
2022/10/17 09:30:46;;;;;;;20.50;2.72;;;16.60;99.90;;;;;;5038997;28;20176;-66
2022/10/17 09:33:17;;;;;;;12.10;1.98;;;16.60;99.90;;;;;;5053818;28;20168;-60
2022/10/17 09:35:44;;;;;;;29.02;3.08;;;16.70;99.90;;;;;;5056719;28;20189;-61
2022/10/17 09:38:19;;;;;;;24.02;3.50;;;16.70;99.90;;;;;;5052975;28;20232;-61
2022/10/17 09:40:55;;;;;;;19.50;2.55;;;16.70;99.90;;;;;;5053503;28;20197;-61
2022/10/17 09:43:23;;;;;;;19.20;2.60;;;16.50;99.90;;;;;;5054346;28;20168;-61
2022/10/17 09:46:09;;;;;;;22.95;2.53;;;16.90;99.90;;;;;;5040982;28;20544;-61
2022/10/17 09:48:45;;;;;;;17.17;2.28;;;16.80;99.90;;;;;;5050919;28;20188;-61
2022/10/17 09:51:12;;;;;;;19.38;2.65;;;16.80;99.90;;;;;;5073609;28;20629;-61
2022/10/17 09:53:42;;;;;;;15.73;3.00;;;17.10;99.90;;;;;;5073399;28;20180;-61
2022/10/17 09:56:13;;;;;;;14.00;1.95;;;16.90;99.90;;;;;;5069700;28;20172;-59
2022/10/17 09:58:48;;;;;;;11.07;1.90;;;17.20;99.90;;;;;;5053761;28;20212;-59
2022/10/17 10:01:21;;;;;;;21.92;2.25;;;17.20;99.90;;;;;;5052987;28;20284;-59
2022/10/17 10:03:48;;;;;;;18.20;3.03;;;17.10;99.90;;;;;;5053320;28;20264;-59
2022/10/17 10:06:19;;;;;;;20.65;2.60;;;17.40;99.90;;;;;;5051368;28;20185;-59
2022/10/17 10:09:02;;;;;;;17.30;2.75;;;17.30;99.90;;;;;;5054372;28;20181;-60
2022/10/17 10:11:50;;;;;;;15.68;2.50;;;18.10;99.90;;;;;;5030719;28;20202;-59
2022/10/17 10:14:27;;;;;;;19.33;2.60;;;17.70;99.90;;;;;;5031704;28;20181;-59
2022/10/17 10:16:54;;;;;;;41.17;3.53;;;17.80;99.90;;;;;;5048564;28;20235;-58
2022/10/17 10:19:32;;;;;;;18.25;3.00;;;17.80;99.90;;;;;;5060784;28;20215;-61
2022/10/17 10:22:04;;;;;;;16.05;2.70;;;18.10;99.90;;;;;;5053348;28;20180;-58
2022/10/17 10:24:30;;;;;;;23.50;2.30;;;17.90;99.90;;;;;;5053279;28;20254;-60
2022/10/17 10:26:59;;;;;;;15.23;2.10;;;17.90;99.90;;;;;;5051616;28;20280;-59
2022/10/17 10:29:25;;;;;;;11.68;1.75;;;;;;;;;;5071226;28;20192;-59
2022/10/17 10:31:52;;;;;;;19.20;2.53;;;18.50;99.90;;;;;;5057812;28;20173;-59
2022/10/17 10:34:22;;;;;;;11.20;1.58;;;18.90;99.90;;;;;;5052523;28;20209;-59
2022/10/17 10:36:56;;;;;;;12.95;2.30;;;18.70;99.90;;;;;;5052600;28;20169;-60
2022/10/17 10:39:49;;;;;;;12.40;2.55;;;18.80;99.90;;;;;;5052900;28;20231;-59
2022/10/17 10:42:26;;;;;;;17.92;2.28;;;18.20;99.90;;;;;;5032866;28;20170;-59
2022/10/17 10:44:55;;;;;;;16.20;2.17;;;18.60;99.90;;;;;;5032690;28;20182;-59
2022/10/17 10:47:27;;;;;;;14.25;2.05;;;18.90;99.90;;;;;;5032833;28;20197;-59
2022/10/17 10:50:18;;;;;;;22.10;2.50;;;20.10;99.90;;;;;;5033093;28;20178;-57
2022/10/17 10:52:55;;;;;;;10.48;1.55;;;21.30;99.90;;;;;;5032629;28;20162;-58
2022/10/17 10:55:29;;;;;;;12.70;2.42;;;22.00;99.90;;;;;;5032646;28;20224;-58
2022/10/17 10:58:00;;;;;;;7.63;1.85;;;23.70;99.90;;;;;;5032582;28;20205;-58
2022/10/17 11:00:29;;;;;;;13.00;2.35;;;24.80;99.90;;;;;;5032596;28;20182;-58
2022/10/17 11:03:15;;;;;;;21.13;2.45;;;26.00;99.90;;;;;;5032543;28;20174;-58
2022/10/17 11:05:55;;;;;;;9.82;1.63;;;25.70;99.90;;;;;;5032218;28;20247;-59
2022/10/17 11:08:34;;;;;;;9.48;1.77;;;25.60;99.90;;;;;;5032369;28;20173;-58
2022/10/17 11:11:16;;;;;;;9.63;1.45;;;26.10;99.90;;;;;;5032606;28;20182;-59
2022/10/17 11:14:06;;;;;;;6.45;1.40;;;25.40;99.90;;;;;;5032391;28;20212;-59
2022/10/17 11:16:38;;;;;;;12.50;2.05;;;25.60;99.90;;;;;;5032025;28;20254;-59
2022/10/17 11:19:30;;;;;;;14.02;2.05;;;26.60;99.90;;;;;;5032187;28;20206;-58
2022/10/17 11:22:15;;;;;;;5.97;1.50;;;26.80;99.90;;;;;;5032250;28;20174;-58
2022/10/17 11:24:59;;;;;;;8.07;1.80;;;25.70;99.90;;;;;;5030859;28;20176;-59
2022/10/17 11:27:28;;;;;;;11.32;1.60;;;25.90;99.90;;;;;;5032263;28;20174;-59
2022/10/17 11:29:54;;;;;;;12.95;2.25;;;27.10;99.90;;;;;;5032011;28;20276;-59
2022/10/17 11:32:37;;;;;;;14.40;2.10;;;27.10;99.90;;;;;;5031979;28;20166;-59
2022/10/17 11:35:13;;;;;;;10.32;2.10;;;25.80;99.90;;;;;;5031848;28;20166;-59
2022/10/17 11:37:45;;;;;;;11.88;2.10;;;25.90;99.90;;;;;;5049226;28;20260;-59
2022/10/17 11:40:34;;;;;;;11.90;2.17;;;26.40;99.90;;;;;;5051735;28;20337;-59
2022/10/17 11:43:04;;;;;;;11.38;2.40;;;26.80;99.90;;;;;;5051475;28;20178;-59
2022/10/17 11:45:35;;;;;;;10.10;2.42;;;23.80;99.90;;;;;;5051582;28;20543;-59
2022/10/17 11:48:06;;;;;;;8.30;1.58;;;24.10;99.90;;;;;;5051454;28;20170;-59
2022/10/17 11:50:35;;;;;;;9.00;1.30;;;25.00;99.90;;;;;;5051492;28;20193;-59
2022/10/17 11:53:08;;;;;;;5.65;1.50;;;24.90;99.90;;;;;;5051437;28;20256;-58
2022/10/17 11:55:37;;;;;;;7.80;1.25;;;25.80;99.90;;;;;;5051248;28;20196;-61
2022/10/17 11:58:23;;;;;;;8.32;1.67;;;25.50;99.90;;;;;;5051286;28;20180;-59
2022/10/17 12:00:58;;;;;;;11.32;1.80;;;25.20;99.90;;;;;;5051337;28;20165;-59
2022/10/17 12:03:43;;;;;;;11.18;2.00;;;24.90;99.90;;;;;;5051316;28;20199;-58
2022/10/17 12:06:33;;;;;;;10.68;1.88;;;22.20;99.90;;;;;;5051062;28;20221;-58
2022/10/17 12:09:14;;;;;;;16.08;2.05;;;22.90;99.90;;;;;;5050994;28;20177;-58
2022/10/17 12:11:49;;;;;;;7.28;1.80;;;23.40;99.90;;;;;;5051189;28;20173;-59
2022/10/17 12:14:37;;;;;;;13.23;2.28;;;23.60;99.90;;;;;;5064905;28;20174;-59
2022/10/17 12:17:04;;;;;;;4.95;1.42;;;25.60;99.90;;;;;;5069987;28;20535;-59
2022/10/17 12:19:35;;;;;;;6.03;1.50;;;26.90;99.90;;;;;;5057283;28;20207;-59
2022/10/17 12:22:21;;;;;;;11.57;2.10;;;27.10;99.90;;;;;;5050744;28;20170;-59
2022/10/17 12:24:52;;;;;;;9.15;1.98;;;28.20;99.90;;;;;;5050200;28;20188;-59
2022/10/17 12:27:42;;;;;;;11.38;1.83;;;29.00;99.90;;;;;;5049799;28;20192;-59
2022/10/17 12:30:10;;;;;;;13.45;1.77;;;28.90;99.90;;;;;;5050259;28;20177;-59
2022/10/17 12:32:37;;;;;;;10.35;1.95;;;27.70;99.90;;;;;;5057138;28;20181;-59
2022/10/17 12:35:03;;;;;;;14.15;2.28;;;28.40;99.90;;;;;;5067069;28;20168;-59
2022/10/17 12:37:44;;;;;;;12.73;2.17;;;26.10;99.90;;;;;;5066603;28;20369;-59
2022/10/17 12:40:34;;;;;;;9.10;2.05;;;25.00;99.90;;;;;;5069979;28;20269;-59
2022/10/17 12:43:28;;;;;;;11.10;1.63;;;23.40;99.90;;;;;;5058109;28;20184;-59
2022/10/17 12:45:56;;;;;;;13.90;2.20;;;24.20;99.90;;;;;;5058062;28;20272;-59
2022/10/17 12:48:37;;;;;;;17.88;2.67;;;25.30;99.90;;;;;;5050497;28;20200;-59
2022/10/17 12:51:10;;;;;;;8.18;2.05;;;26.80;99.90;;;;;;5050371;28;20331;-59
2022/10/17 12:54:14;;;;;;;12.57;1.75;;;26.60;99.90;;;;;;5049945;28;20173;-59
2022/10/17 12:56:48;;;;;;;9.85;1.95;;;22.90;99.90;;;;;;5049311;28;20181;-59
2022/10/17 12:59:19;;;;;;;10.05;1.63;;;23.40;99.90;;;;;;5049491;28;20200;-59
2022/10/17 13:01:47;;;;;;;10.27;2.03;;;24.80;99.90;;;;;;5050129;28;20180;-59